createdAt,value
2022-12-31T00:00:02.896Z,1.60
2022-12-31T00:01:02.409Z,1.51
2022-12-31T00:02:02.762Z,2.16
2022-12-31T00:03:02.211Z,1.87
2022-12-31T00:04:01.993Z,1.75
2022-12-31T00:05:02.373Z,0.84
2022-12-31T00:06:02.146Z,1.63
2022-12-31T00:07:01.669Z,0.73
2022-12-31T00:08:02.056Z,1.36
2022-12-31T00:09:01.718Z,1.59
2022-12-31T00:10:02.064Z,1.64
2022-12-31T00:11:02.342Z,1.72
2022-12-31T00:12:02.423Z,1.48
2022-12-31T00:13:01.914Z,1.22
2022-12-31T00:14:02.293Z,1.76
2022-12-31T00:15:02.028Z,1.26
2022-12-31T00:16:08.279Z,1.28
2022-12-31T00:17:02.145Z,0.73
2022-12-31T00:18:02.525Z,0.44
2022-12-31T00:19:02.324Z,2.36
2022-12-31T00:20:02.677Z,2.12
2022-12-31T00:21:02.770Z,1.68
2022-12-31T00:22:02.591Z,2.20
2022-12-31T00:23:02.893Z,2.28
2022-12-31T00:24:02.332Z,2.32
2022-12-31T00:25:02.704Z,2.28
2022-12-31T00:26:02.348Z,3.21
2022-12-31T00:27:01.779Z,0.81
2022-12-31T00:28:02.299Z,0.32
2022-12-31T00:29:02.210Z,0.65
2022-12-31T00:30:04.828Z,0.33
2022-12-31T00:31:02.425Z,0.48
2022-12-31T00:32:02.521Z,0.72
2022-12-31T00:33:01.901Z,2.24
2022-12-31T00:34:02.103Z,2.36
2022-12-31T00:35:02.271Z,1.12
2022-12-31T00:36:02.543Z,1.00
2022-12-31T00:37:01.960Z,0.69
2022-12-31T00:38:02.368Z,1.52
2022-12-31T00:39:02.612Z,3.00
2022-12-31T00:40:02.055Z,2.60
2022-12-31T00:41:02.496Z,2.00
2022-12-31T00:42:02.257Z,2.28
2022-12-31T00:43:02.726Z,1.00
2022-12-31T00:44:02.448Z,0.94
2022-12-31T00:45:02.815Z,0.84
2022-12-31T00:46:02.283Z,1.10
2022-12-31T00:47:02.767Z,1.56
2022-12-31T00:48:03.227Z,2.04
2022-12-31T00:49:02.967Z,3.21
2022-12-31T00:50:03.305Z,2.36
2022-12-31T00:51:02.711Z,1.87
2022-12-31T00:52:02.146Z,2.69
2022-12-31T00:53:02.530Z,3.00
2022-12-31T00:54:02.291Z,0.69
2022-12-31T00:55:02.687Z,0.48
2022-12-31T00:56:02.130Z,1.34
2022-12-31T00:57:02.439Z,1.76
2022-12-31T00:58:02.833Z,2.24
2022-12-31T00:59:02.692Z,2.48
2022-12-31T01:00:02.491Z,1.59
2022-12-31T01:01:03.192Z,0.88
2022-12-31T01:02:03.000Z,0.37
2022-12-31T01:03:02.927Z,1.64
2022-12-31T01:04:02.812Z,2.40
2022-12-31T01:05:02.802Z,3.05
2022-12-31T01:06:03.139Z,2.04
2022-12-31T01:07:03.405Z,1.20
2022-12-31T01:08:02.944Z,1.55
2022-12-31T01:09:03.416Z,1.52
2022-12-31T01:10:02.793Z,1.79
2022-12-31T01:11:03.266Z,1.36
2022-12-31T01:12:02.900Z,1.06
2022-12-31T01:13:03.205Z,1.24
2022-12-31T01:14:02.977Z,1.30
2022-12-31T01:15:03.410Z,0.84
2022-12-31T01:16:02.986Z,2.03
2022-12-31T01:17:02.487Z,1.02
2022-12-31T01:18:02.938Z,1.16
2022-12-31T01:19:02.494Z,1.51
2022-12-31T01:20:02.907Z,2.88
2022-12-31T01:21:02.626Z,1.87
2022-12-31T01:22:03.098Z,1.44
2022-12-31T01:23:03.514Z,0.84
2022-12-31T01:24:03.061Z,2.77
2022-12-31T01:25:03.339Z,3.40
2022-12-31T01:26:03.089Z,1.47
2022-12-31T01:27:02.518Z,1.55
2022-12-31T01:28:02.997Z,4.12
2022-12-31T01:29:02.524Z,1.51
2022-12-31T01:30:02.972Z,1.84
2022-12-31T01:31:02.474Z,1.47
2022-12-31T01:32:02.722Z,1.60
2022-12-31T01:33:03.236Z,2.00
2022-12-31T01:34:03.001Z,1.79
2022-12-31T01:35:02.759Z,3.30
2022-12-31T01:36:03.065Z,3.08
2022-12-31T01:37:03.333Z,4.00
2022-12-31T01:38:03.793Z,2.72
2022-12-31T01:39:03.326Z,2.24
2022-12-31T01:40:03.779Z,2.80
2022-12-31T01:41:03.833Z,2.92
2022-12-31T01:42:03.091Z,2.89
2022-12-31T01:43:02.845Z,2.32
2022-12-31T01:44:03.288Z,1.52
2022-12-31T01:45:02.885Z,2.65
2022-12-31T01:46:03.335Z,2.84
2022-12-31T01:47:03.413Z,1.80
2022-12-31T01:48:03.855Z,1.44
2022-12-31T01:49:03.373Z,1.22
2022-12-31T01:50:03.692Z,0.68
2022-12-31T01:51:03.782Z,1.56
2022-12-31T01:52:03.091Z,0.90
2022-12-31T01:53:02.697Z,1.47
2022-12-31T01:54:03.085Z,0.32
2022-12-31T01:55:03.174Z,0.72
2022-12-31T01:56:02.600Z,0.57
2022-12-31T01:57:02.870Z,0.64
2022-12-31T01:58:03.266Z,0.56
2022-12-31T01:59:02.769Z,0.49
2022-12-31T02:00:03.201Z,0.60
2022-12-31T02:01:03.006Z,0.81
2022-12-31T02:02:02.680Z,1.83
2022-12-31T02:03:02.289Z,3.17
2022-12-31T02:04:02.760Z,1.76
2022-12-31T02:05:02.272Z,0.69
2022-12-31T02:06:02.999Z,0.64
2022-12-31T02:07:03.073Z,0.68
2022-12-31T02:08:02.854Z,3.17
2022-12-31T02:09:03.291Z,2.92
2022-12-31T02:10:02.808Z,5.62
2022-12-31T02:11:03.248Z,4.52
2022-12-31T02:12:02.600Z,3.66
2022-12-31T02:13:02.372Z,3.05
2022-12-31T02:14:02.824Z,3.80
2022-12-31T02:15:02.639Z,2.52
2022-12-31T02:16:02.254Z,4.68
2022-12-31T02:17:03.351Z,3.42
2022-12-31T02:18:03.091Z,3.54
2022-12-31T02:19:03.424Z,2.60
2022-12-31T02:20:03.128Z,2.69
2022-12-31T02:21:03.387Z,3.68
2022-12-31T02:22:02.794Z,2.81
2022-12-31T02:23:02.459Z,3.21
2022-12-31T02:24:02.860Z,4.12
2022-12-31T02:25:02.351Z,5.58
2022-12-31T02:26:02.736Z,5.32
2022-12-31T02:27:03.122Z,4.24
2022-12-31T02:28:02.872Z,4.31
2022-12-31T02:29:02.630Z,2.03
2022-12-31T02:30:03.058Z,1.04
2022-12-31T02:31:02.891Z,0.98
2022-12-31T02:32:03.319Z,1.56
2022-12-31T02:33:03.085Z,2.32
2022-12-31T02:34:02.870Z,1.71
2022-12-31T02:35:03.344Z,2.80
2022-12-31T02:36:03.011Z,2.36
2022-12-31T02:37:03.469Z,2.48
2022-12-31T02:38:03.259Z,2.93
2022-12-31T02:39:03.055Z,2.69
2022-12-31T02:40:03.391Z,2.72
2022-12-31T02:41:02.963Z,3.99
2022-12-31T02:42:03.215Z,3.56
2022-12-31T02:43:02.784Z,3.66
2022-12-31T02:44:03.165Z,2.92
2022-12-31T02:45:02.644Z,2.73
2022-12-31T02:46:02.944Z,3.52
2022-12-31T02:47:03.133Z,3.68
2022-12-31T02:48:02.876Z,1.83
2022-12-31T02:49:03.295Z,3.60
2022-12-31T02:50:03.074Z,2.16
2022-12-31T02:51:02.859Z,1.47
2022-12-31T02:52:02.425Z,4.03
2022-12-31T02:53:02.928Z,3.48
2022-12-31T02:54:02.770Z,2.52
2022-12-31T02:55:02.453Z,3.83
2022-12-31T02:56:02.883Z,3.64
2022-12-31T02:57:02.641Z,4.88
2022-12-31T02:58:03.144Z,2.80
2022-12-31T02:59:02.878Z,1.22
2022-12-31T03:00:03.294Z,0.72
2022-12-31T03:01:03.238Z,3.13
2022-12-31T03:02:03.636Z,3.64
2022-12-31T03:03:03.290Z,3.34
2022-12-31T03:04:02.994Z,2.03
2022-12-31T03:05:03.341Z,3.04
2022-12-31T03:06:02.973Z,4.52
2022-12-31T03:07:02.406Z,2.89
2022-12-31T03:08:02.858Z,3.08
2022-12-31T03:09:02.651Z,3.21
2022-12-31T03:10:02.441Z,3.30
2022-12-31T03:11:02.759Z,4.24
2022-12-31T03:12:02.590Z,2.81
2022-12-31T03:13:02.933Z,2.76
2022-12-31T03:14:02.702Z,1.55
2022-12-31T03:15:03.092Z,2.92
2022-12-31T03:16:02.723Z,2.03
2022-12-31T03:17:03.820Z,3.35
2022-12-31T03:18:03.377Z,5.13
2022-12-31T03:19:03.708Z,3.96
2022-12-31T03:20:03.511Z,2.56
2022-12-31T03:21:03.278Z,2.40
2022-12-31T03:22:02.687Z,3.05
2022-12-31T03:23:03.017Z,3.04
2022-12-31T03:24:02.656Z,4.68
2022-12-31T03:25:03.188Z,3.32
2022-12-31T03:26:03.273Z,4.12
2022-12-31T03:27:03.355Z,4.32
2022-12-31T03:28:03.721Z,4.24
2022-12-31T03:29:03.997Z,3.96
2022-12-31T03:30:03.555Z,7.49
2022-12-31T03:31:03.413Z,5.41
2022-12-31T03:32:03.035Z,4.27
2022-12-31T03:33:03.526Z,4.68
2022-12-31T03:34:03.202Z,4.23
2022-12-31T03:35:03.024Z,4.15
2022-12-31T03:36:03.325Z,4.80
2022-12-31T03:37:03.061Z,4.11
2022-12-31T03:38:03.506Z,4.56
2022-12-31T03:39:03.336Z,5.29
2022-12-31T03:40:03.201Z,1.71
2022-12-31T03:41:03.575Z,1.72
2022-12-31T03:42:03.181Z,2.93
2022-12-31T03:43:02.984Z,1.91
2022-12-31T03:44:03.466Z,3.56
2022-12-31T03:45:03.208Z,3.34
2022-12-31T03:46:03.040Z,2.93
2022-12-31T03:47:03.519Z,2.44
2022-12-31T03:48:04.409Z,4.08
2022-12-31T03:49:03.865Z,4.48
2022-12-31T03:50:03.668Z,2.89
2022-12-31T03:51:04.044Z,2.44
2022-12-31T03:52:03.206Z,0.65
2022-12-31T03:53:03.691Z,3.16
2022-12-31T03:54:03.229Z,4.64
2022-12-31T03:55:03.659Z,3.16
2022-12-31T03:56:03.730Z,2.68
2022-12-31T03:57:03.120Z,2.97
2022-12-31T03:58:02.890Z,2.32
2022-12-31T03:59:03.295Z,2.32
2022-12-31T04:00:03.109Z,2.48
2022-12-31T04:01:03.096Z,1.26
2022-12-31T04:02:02.723Z,0.49
2022-12-31T04:03:02.812Z,0.88
2022-12-31T04:04:02.645Z,0.53
2022-12-31T04:05:02.439Z,0.65
2022-12-31T04:06:02.353Z,1.18
2022-12-31T04:07:02.895Z,3.20
2022-12-31T04:08:02.584Z,5.41
2022-12-31T04:09:02.982Z,4.64
2022-12-31T04:10:02.644Z,1.71
2022-12-31T04:11:03.110Z,1.16
2022-12-31T04:12:02.590Z,2.24
2022-12-31T04:13:02.404Z,1.47
2022-12-31T04:14:02.195Z,1.30
2022-12-31T04:15:02.566Z,1.28
2022-12-31T04:16:02.334Z,1.67
2022-12-31T04:17:02.604Z,1.76
2022-12-31T04:18:02.356Z,1.95
2022-12-31T04:19:02.801Z,0.96
2022-12-31T04:20:02.808Z,1.51
2022-12-31T04:21:02.400Z,1.67
2022-12-31T04:22:02.660Z,1.72
2022-12-31T04:23:02.912Z,2.20
2022-12-31T04:24:02.678Z,1.83
2022-12-31T04:25:03.061Z,1.16
2022-12-31T04:26:02.542Z,0.81
2022-12-31T04:27:07.459Z,1.24
2022-12-31T04:28:02.717Z,0.69
2022-12-31T04:29:03.051Z,0.48
2022-12-31T04:30:02.782Z,0.73
2022-12-31T04:31:03.083Z,1.40
2022-12-31T04:32:03.686Z,3.60
2022-12-31T04:33:03.270Z,3.13
2022-12-31T04:34:03.630Z,4.88
2022-12-31T04:35:03.591Z,4.60
2022-12-31T04:36:03.832Z,3.52
2022-12-31T04:37:03.125Z,4.52
2022-12-31T04:38:02.885Z,3.70
2022-12-31T04:39:02.967Z,3.00
2022-12-31T04:40:06.115Z,0.72
2022-12-31T04:41:02.734Z,0.57
2022-12-31T04:42:02.877Z,1.04
2022-12-31T04:43:02.448Z,3.70
2022-12-31T04:44:02.529Z,2.44
2022-12-31T04:45:03.022Z,3.20
2022-12-31T04:46:03.156Z,3.05
2022-12-31T04:47:03.273Z,2.84
2022-12-31T04:48:02.892Z,3.13
2022-12-31T04:49:03.235Z,1.48
2022-12-31T04:50:02.936Z,1.10
2022-12-31T04:51:03.278Z,2.48
2022-12-31T04:52:03.784Z,2.92
2022-12-31T04:53:03.481Z,2.52
2022-12-31T04:54:03.857Z,2.32
2022-12-31T04:55:03.921Z,2.20
2022-12-31T04:56:03.278Z,0.49
2022-12-31T04:57:03.395Z,0.72
2022-12-31T04:58:03.068Z,3.50
2022-12-31T04:59:03.464Z,3.04
2022-12-31T05:00:03.528Z,3.52
2022-12-31T05:01:03.285Z,3.62
2022-12-31T05:02:02.759Z,3.70
2022-12-31T05:03:02.503Z,3.30
2022-12-31T05:04:02.319Z,3.13
2022-12-31T05:05:02.664Z,0.44
2022-12-31T05:06:03.190Z,1.16
2022-12-31T05:07:03.300Z,0.64
2022-12-31T05:08:02.825Z,1.34
2022-12-31T05:09:03.268Z,0.52
2022-12-31T05:10:03.008Z,1.51
2022-12-31T05:11:02.822Z,2.20
2022-12-31T05:12:02.944Z,1.40
2022-12-31T05:13:02.442Z,1.83
2022-12-31T05:14:02.725Z,1.60
2022-12-31T05:15:02.450Z,0.94
2022-12-31T05:16:02.819Z,1.04
2022-12-31T05:17:03.292Z,1.28
2022-12-31T05:18:02.897Z,0.85
2022-12-31T05:19:03.275Z,0.92
2022-12-31T05:20:02.791Z,0.49
2022-12-31T05:21:03.156Z,0.20
2022-12-31T05:22:03.336Z,0.60
2022-12-31T05:23:03.026Z,0.61
2022-12-31T05:24:03.479Z,0.52
2022-12-31T05:25:03.225Z,0.41
2022-12-31T05:26:02.983Z,0.41
2022-12-31T05:27:02.426Z,1.10
2022-12-31T05:28:03.071Z,1.24
2022-12-31T05:29:02.528Z,0.57
2022-12-31T05:30:02.898Z,2.36
2022-12-31T05:31:03.065Z,1.04
2022-12-31T05:32:02.618Z,0.94
2022-12-31T05:33:03.070Z,0.92
2022-12-31T05:34:03.089Z,1.12
2022-12-31T05:35:02.712Z,1.02
2022-12-31T05:36:03.020Z,0.48
2022-12-31T05:37:02.794Z,0.53
2022-12-31T05:38:03.164Z,0.56
2022-12-31T05:39:02.905Z,0.37
2022-12-31T05:40:03.341Z,1.00
2022-12-31T05:41:03.139Z,0.57
2022-12-31T05:42:02.815Z,0.49
2022-12-31T05:43:03.238Z,0.48
2022-12-31T05:44:03.085Z,0.53
2022-12-31T05:45:03.026Z,0.53
2022-12-31T05:46:02.927Z,0.73
2022-12-31T05:47:02.466Z,0.77
2022-12-31T05:48:02.800Z,1.32
2022-12-31T05:49:02.765Z,1.47
2022-12-31T05:50:02.575Z,2.20
2022-12-31T05:51:03.038Z,0.72
2022-12-31T05:52:02.594Z,0.94
2022-12-31T05:53:02.840Z,0.56
2022-12-31T05:54:03.012Z,0.44
2022-12-31T05:55:02.786Z,0.57
2022-12-31T05:56:02.947Z,0.64
2022-12-31T05:57:02.586Z,0.57
2022-12-31T05:58:02.983Z,0.68
2022-12-31T05:59:03.124Z,0.92
2022-12-31T06:00:02.698Z,0.65
2022-12-31T06:01:02.939Z,0.72
2022-12-31T06:02:03.198Z,0.48
2022-12-31T06:03:02.938Z,0.85
2022-12-31T06:04:02.868Z,0.60
2022-12-31T06:05:03.099Z,0.64
2022-12-31T06:06:03.001Z,0.49
2022-12-31T06:07:02.933Z,0.65
2022-12-31T06:08:02.825Z,0.49
2022-12-31T06:09:03.402Z,0.72
2022-12-31T06:10:02.812Z,0.49
2022-12-31T06:11:03.659Z,0.36
2022-12-31T06:12:02.198Z,0.50
2022-12-31T06:13:02.699Z,0.68
2022-12-31T06:14:02.668Z,0.57
2022-12-31T06:15:02.472Z,0.90
2022-12-31T06:16:02.573Z,0.56
2022-12-31T06:17:02.373Z,0.53
2022-12-31T06:18:02.849Z,0.76
2022-12-31T06:19:02.450Z,0.61
2022-12-31T06:20:04.922Z,0.45
2022-12-31T06:21:02.727Z,0.48
2022-12-31T06:22:02.600Z,0.45
2022-12-31T06:23:02.926Z,0.56
2022-12-31T06:24:02.763Z,0.77
2022-12-31T06:25:02.397Z,0.77
2022-12-31T06:26:03.011Z,0.80
2022-12-31T06:27:02.679Z,1.30
2022-12-31T06:28:03.106Z,1.80
2022-12-31T06:29:02.736Z,2.97
2022-12-31T06:30:02.563Z,4.19
2022-12-31T06:31:03.260Z,3.20
2022-12-31T06:32:03.027Z,0.72
2022-12-31T06:33:02.838Z,0.61
2022-12-31T06:34:02.714Z,0.81
2022-12-31T06:35:03.207Z,0.92
2022-12-31T06:36:02.839Z,0.81
2022-12-31T06:37:02.445Z,0.53
2022-12-31T06:38:02.479Z,0.44
2022-12-31T06:39:02.351Z,0.73
2022-12-31T06:40:02.233Z,0.61
2022-12-31T06:41:02.671Z,0.44
2022-12-31T06:42:02.456Z,0.81
2022-12-31T06:43:02.323Z,0.61
2022-12-31T06:44:02.849Z,0.48
2022-12-31T06:45:02.555Z,0.57
2022-12-31T06:46:02.323Z,0.65
2022-12-31T06:47:02.924Z,0.52
2022-12-31T06:48:02.788Z,0.53
2022-12-31T06:49:03.115Z,0.64
2022-12-31T06:50:02.912Z,0.37
2022-12-31T06:51:03.294Z,0.56
2022-12-31T06:52:02.622Z,0.61
2022-12-31T06:53:02.493Z,0.49
2022-12-31T06:54:02.419Z,0.61
2022-12-31T06:55:02.339Z,0.37
2022-12-31T06:56:02.924Z,0.68
2022-12-31T06:57:02.716Z,0.49
2022-12-31T06:58:02.619Z,0.49
2022-12-31T06:59:02.814Z,0.56
2022-12-31T07:00:02.663Z,0.69
2022-12-31T07:01:03.302Z,0.64
2022-12-31T07:02:02.183Z,0.49
2022-12-31T07:03:01.989Z,0.81
2022-12-31T07:04:01.859Z,1.06
2022-12-31T07:05:01.752Z,1.18
2022-12-31T07:06:02.324Z,0.36
2022-12-31T07:07:02.609Z,0.72
2022-12-31T07:08:02.501Z,0.90
2022-12-31T07:09:02.375Z,0.77
2022-12-31T07:10:02.280Z,1.06
2022-12-31T07:11:02.777Z,0.48
2022-12-31T07:12:02.711Z,0.69
2022-12-31T07:13:02.410Z,0.53
2022-12-31T07:14:02.950Z,0.56
2022-12-31T07:15:02.813Z,0.57
2022-12-31T07:16:02.892Z,0.98
2022-12-31T07:17:02.941Z,0.44
2022-12-31T07:18:02.824Z,0.52
2022-12-31T07:19:02.722Z,0.53
2022-12-31T07:20:02.593Z,1.06
2022-12-31T07:21:02.441Z,0.98
2022-12-31T07:22:02.021Z,0.94
2022-12-31T07:23:02.043Z,0.73
2022-12-31T07:24:02.550Z,0.36
2022-12-31T07:25:02.247Z,0.69
2022-12-31T07:26:02.188Z,0.77
2022-12-31T07:27:02.806Z,0.92
2022-12-31T07:28:02.625Z,0.57
2022-12-31T07:29:02.502Z,0.90
2022-12-31T07:30:02.672Z,0.44
2022-12-31T07:31:02.750Z,0.68
2022-12-31T07:32:02.523Z,0.73
2022-12-31T07:33:02.226Z,0.53
2022-12-31T07:34:02.211Z,0.45
2022-12-31T07:35:02.457Z,0.76
2022-12-31T07:36:02.385Z,0.73
2022-12-31T07:37:02.946Z,0.68
2022-12-31T07:38:02.929Z,0.73
2022-12-31T07:39:02.812Z,0.65
2022-12-31T07:40:02.737Z,0.45
2022-12-31T07:41:09.482Z,0.68
2022-12-31T07:42:02.520Z,0.81
2022-12-31T07:43:02.012Z,0.61
2022-12-31T07:44:02.563Z,1.36
2022-12-31T07:45:02.461Z,0.57
2022-12-31T07:46:02.342Z,0.61
2022-12-31T07:47:02.932Z,0.76
2022-12-31T07:48:03.162Z,0.65
2022-12-31T07:49:03.332Z,0.48
2022-12-31T07:50:02.920Z,0.77
2022-12-31T07:51:02.917Z,0.57
2022-12-31T07:52:02.585Z,1.14
2022-12-31T07:53:02.102Z,0.73
2022-12-31T07:54:02.192Z,0.80
2022-12-31T07:55:02.413Z,1.04
2022-12-31T07:56:02.585Z,0.44
2022-12-31T07:57:03.197Z,0.64
2022-12-31T07:58:03.367Z,1.42
2022-12-31T07:59:03.189Z,0.72
2022-12-31T08:00:02.838Z,0.53
2022-12-31T08:01:02.914Z,0.41
2022-12-31T08:02:02.905Z,1.08
2022-12-31T08:03:02.264Z,0.69
2022-12-31T08:04:02.253Z,0.72
2022-12-31T08:05:02.117Z,0.85
2022-12-31T08:06:02.057Z,0.57
2022-12-31T08:07:01.972Z,0.65
2022-12-31T08:08:01.970Z,0.80
2022-12-31T08:09:01.792Z,0.69
2022-12-31T08:10:01.800Z,1.22
2022-12-31T08:11:02.036Z,0.69
2022-12-31T08:12:02.027Z,0.64
2022-12-31T08:13:02.436Z,0.48
2022-12-31T08:14:02.274Z,0.53
2022-12-31T08:15:02.450Z,0.52
2022-12-31T08:16:02.592Z,0.90
2022-12-31T08:17:02.503Z,0.80
2022-12-31T08:18:02.539Z,1.28
2022-12-31T08:19:02.480Z,1.02
2022-12-31T08:20:02.589Z,0.84
2022-12-31T08:21:02.638Z,0.48
2022-12-31T08:22:02.117Z,0.65
2022-12-31T08:23:02.380Z,0.64
2022-12-31T08:24:01.768Z,0.41
2022-12-31T08:25:01.857Z,0.48
2022-12-31T08:26:02.023Z,0.52
2022-12-31T08:27:01.889Z,0.37
2022-12-31T08:28:02.365Z,0.56
2022-12-31T08:29:02.326Z,0.69
2022-12-31T08:30:02.389Z,0.68
2022-12-31T08:31:02.325Z,0.45
2022-12-31T08:32:02.464Z,0.60
2022-12-31T08:33:02.382Z,0.56
2022-12-31T08:34:06.031Z,0.65
2022-12-31T08:35:02.829Z,0.84
2022-12-31T08:37:02.545Z,0.61
2022-12-31T08:38:02.936Z,0.52
2022-12-31T08:39:02.538Z,0.53
2022-12-31T08:40:03.118Z,0.56
2022-12-31T08:41:02.509Z,1.18
2022-12-31T08:42:02.298Z,0.49
2022-12-31T08:43:02.515Z,0.45
2022-12-31T08:44:02.660Z,0.40
2022-12-31T08:45:02.617Z,0.69
2022-12-31T08:46:02.536Z,0.65
2022-12-31T08:47:02.757Z,0.76
2022-12-31T08:48:03.007Z,0.48
2022-12-31T08:49:03.019Z,0.76
2022-12-31T08:50:02.936Z,1.34
2022-12-31T08:51:02.988Z,0.68
2022-12-31T08:52:02.069Z,3.87
2022-12-31T08:53:02.118Z,1.72
2022-12-31T08:54:01.893Z,0.69
2022-12-31T08:55:02.453Z,0.88
2022-12-31T08:56:02.253Z,0.49
2022-12-31T08:57:02.163Z,0.57
2022-12-31T08:58:02.029Z,0.49
2022-12-31T08:59:02.224Z,0.96
2022-12-31T09:00:02.230Z,0.73
2022-12-31T09:01:02.462Z,0.72
2022-12-31T09:02:03.733Z,1.77
2022-12-31T09:03:03.021Z,1.87
2022-12-31T09:04:03.107Z,1.92
2022-12-31T09:05:03.669Z,1.52
2022-12-31T09:06:03.396Z,0.90
2022-12-31T09:07:02.626Z,1.14
2022-12-31T09:08:03.121Z,2.00
2022-12-31T09:09:02.790Z,1.06
2022-12-31T09:10:02.814Z,0.76
2022-12-31T09:11:02.703Z,2.77
2022-12-31T09:12:03.118Z,2.00
2022-12-31T09:13:03.119Z,1.02
2022-12-31T09:14:03.079Z,2.12
2022-12-31T09:15:02.959Z,2.40
2022-12-31T09:16:02.992Z,2.44
2022-12-31T09:17:02.950Z,3.66
2022-12-31T09:18:02.812Z,3.28
2022-12-31T09:19:02.796Z,2.73
2022-12-31T09:20:02.863Z,3.26
2022-12-31T09:21:03.401Z,3.80
2022-12-31T09:22:02.989Z,3.46
2022-12-31T09:23:02.948Z,4.27
2022-12-31T09:24:09.017Z,4.76
2022-12-31T09:25:03.082Z,1.80
2022-12-31T09:26:02.951Z,0.81
2022-12-31T09:27:02.518Z,0.77
2022-12-31T09:28:02.362Z,2.48
2022-12-31T09:29:02.656Z,1.28
2022-12-31T09:30:02.882Z,2.88
2022-12-31T09:31:02.643Z,2.69
2022-12-31T09:32:02.667Z,2.93
2022-12-31T09:33:02.666Z,2.60
2022-12-31T09:34:02.574Z,5.70
2022-12-31T09:35:02.553Z,2.77
2022-12-31T09:36:02.529Z,2.89
2022-12-31T09:37:02.870Z,1.92
2022-12-31T09:38:07.928Z,3.05
2022-12-31T09:39:02.604Z,3.30
2022-12-31T09:40:02.585Z,3.26
2022-12-31T09:41:02.901Z,5.96
2022-12-31T09:42:03.268Z,3.24
2022-12-31T09:43:03.467Z,3.74
2022-12-31T09:44:03.439Z,5.56
2022-12-31T09:45:03.861Z,3.88
2022-12-31T09:46:03.114Z,5.01
2022-12-31T09:47:03.426Z,4.40
2022-12-31T09:48:03.445Z,3.28
2022-12-31T09:49:03.299Z,4.68
2022-12-31T09:50:03.654Z,3.28
2022-12-31T09:51:03.527Z,4.35
2022-12-31T09:52:03.163Z,4.56
2022-12-31T09:53:03.384Z,2.88
2022-12-31T09:54:03.294Z,1.71
2022-12-31T09:55:03.003Z,2.44
2022-12-31T09:56:03.216Z,3.68
2022-12-31T09:57:03.252Z,4.76
2022-12-31T09:58:03.178Z,2.93
2022-12-31T09:59:03.373Z,4.44
2022-12-31T10:00:03.363Z,3.17
2022-12-31T10:01:03.075Z,3.91
2022-12-31T10:02:03.085Z,2.81
2022-12-31T10:03:03.037Z,2.84
2022-12-31T10:04:02.544Z,4.11
2022-12-31T10:05:03.024Z,2.44
2022-12-31T10:06:02.744Z,4.19
2022-12-31T10:07:03.513Z,3.76
2022-12-31T10:08:03.271Z,3.34
2022-12-31T10:09:03.725Z,4.64
2022-12-31T10:10:03.463Z,1.95
2022-12-31T10:11:03.667Z,3.24
2022-12-31T10:12:02.780Z,3.21
2022-12-31T10:13:02.728Z,3.87
2022-12-31T10:14:02.529Z,3.38
2022-12-31T10:15:02.459Z,3.13
2022-12-31T10:16:02.750Z,2.60
2022-12-31T10:17:03.509Z,3.36
2022-12-31T10:18:03.130Z,2.85
2022-12-31T10:19:03.328Z,3.16
2022-12-31T10:20:03.575Z,6.12
2022-12-31T10:21:03.607Z,3.44
2022-12-31T10:22:03.434Z,3.34
2022-12-31T10:23:03.341Z,3.05
2022-12-31T10:24:03.237Z,2.32
2022-12-31T10:25:02.982Z,2.73
2022-12-31T10:26:03.045Z,2.40
2022-12-31T10:27:02.929Z,2.97
2022-12-31T10:28:02.590Z,2.81
2022-12-31T10:29:02.997Z,2.28
2022-12-31T10:30:02.520Z,2.69
2022-12-31T10:31:03.065Z,3.92
2022-12-31T10:32:03.473Z,3.36
2022-12-31T10:33:03.365Z,5.25
2022-12-31T10:34:03.682Z,5.32
2022-12-31T10:35:03.076Z,4.52
2022-12-31T10:36:03.018Z,5.17
2022-12-31T10:37:03.345Z,5.40
2022-12-31T10:38:03.216Z,3.58
2022-12-31T10:39:07.460Z,4.40
2022-12-31T10:40:03.447Z,5.24
2022-12-31T10:41:03.246Z,4.92
2022-12-31T10:42:03.252Z,4.27
2022-12-31T10:43:02.916Z,2.60
2022-12-31T10:44:02.754Z,3.95
2022-12-31T10:45:03.347Z,4.44
2022-12-31T10:46:03.006Z,4.23
2022-12-31T10:47:03.761Z,6.68
2022-12-31T10:48:03.256Z,4.64
2022-12-31T10:49:03.533Z,5.04
2022-12-31T10:50:03.528Z,4.84
2022-12-31T10:51:04.209Z,4.16
2022-12-31T10:52:02.581Z,3.56
2022-12-31T10:53:02.566Z,2.52
2022-12-31T10:54:02.466Z,4.76
2022-12-31T10:55:02.637Z,4.44
2022-12-31T10:56:02.677Z,4.80
2022-12-31T10:57:03.591Z,4.08
2022-12-31T10:58:04.498Z,3.38
2022-12-31T10:59:03.466Z,4.60
2022-12-31T11:00:03.564Z,4.28
2022-12-31T11:01:03.397Z,4.23
2022-12-31T11:02:02.504Z,4.60
2022-12-31T11:03:02.554Z,5.48
2022-12-31T11:04:02.663Z,4.92
2022-12-31T11:05:03.520Z,5.00
2022-12-31T11:06:02.921Z,5.01
2022-12-31T11:07:03.057Z,5.29
2022-12-31T11:08:03.307Z,3.60
2022-12-31T11:09:03.424Z,5.96
2022-12-31T11:10:03.032Z,6.35
2022-12-31T11:11:03.297Z,3.60
2022-12-31T11:12:03.403Z,3.56
2022-12-31T11:13:02.506Z,3.91
2022-12-31T11:14:02.550Z,3.96
2022-12-31T11:15:02.527Z,2.89
2022-12-31T11:16:02.607Z,5.52
2022-12-31T11:17:02.424Z,5.53
2022-12-31T11:18:02.731Z,4.08
2022-12-31T11:19:02.639Z,2.60
2022-12-31T11:20:02.797Z,2.56
2022-12-31T11:21:02.775Z,2.69
2022-12-31T11:22:03.194Z,3.44
2022-12-31T11:23:04.027Z,4.72
2022-12-31T11:24:03.467Z,3.91
2022-12-31T11:25:03.736Z,3.00
2022-12-31T11:26:03.988Z,4.56
2022-12-31T11:27:04.192Z,2.93
2022-12-31T11:28:03.296Z,3.58
2022-12-31T11:29:03.108Z,2.69
2022-12-31T11:30:03.316Z,4.68
2022-12-31T11:31:03.632Z,3.20
2022-12-31T11:32:03.521Z,2.44
2022-12-31T11:33:03.220Z,4.27
2022-12-31T11:34:03.807Z,4.48
2022-12-31T11:35:03.799Z,3.17
2022-12-31T11:36:03.658Z,2.85
2022-12-31T11:37:03.799Z,4.60
2022-12-31T11:38:03.490Z,4.48
2022-12-31T11:39:03.756Z,4.68
2022-12-31T11:40:03.527Z,3.09
2022-12-31T11:41:03.683Z,2.76
2022-12-31T11:42:03.844Z,2.72
2022-12-31T11:43:03.763Z,2.85
2022-12-31T11:44:03.465Z,4.11
2022-12-31T11:45:03.436Z,2.88
2022-12-31T11:46:03.667Z,4.00
2022-12-31T11:47:03.741Z,5.44
2022-12-31T11:48:29.623Z,4.24
2022-12-31T11:49:04.058Z,5.16
2022-12-31T11:50:03.936Z,3.21
2022-12-31T11:51:04.031Z,3.36
2022-12-31T11:52:03.737Z,4.84
2022-12-31T11:53:03.216Z,2.32
2022-12-31T11:54:03.224Z,3.20
2022-12-31T11:55:03.774Z,2.88
2022-12-31T11:56:03.398Z,2.81
2022-12-31T11:57:03.516Z,3.20
2022-12-31T11:58:03.503Z,4.23
2022-12-31T11:59:09.253Z,4.44
2022-12-31T12:00:03.783Z,4.24
2022-12-31T12:01:03.910Z,3.44
2022-12-31T12:02:03.407Z,4.60
2022-12-31T12:03:02.514Z,4.22
2022-12-31T12:04:02.019Z,6.19
2022-12-31T12:05:08.453Z,3.80
2022-12-31T12:06:02.348Z,3.84
2022-12-31T12:07:02.310Z,5.00
2022-12-31T12:08:02.467Z,6.00
2022-12-31T12:09:02.477Z,3.95
2022-12-31T12:10:02.388Z,2.96
2022-12-31T12:11:02.248Z,3.01
2022-12-31T12:12:02.411Z,4.12
2022-12-31T12:13:02.465Z,2.32
2022-12-31T12:14:02.240Z,5.74
2022-12-31T12:15:02.708Z,3.28
2022-12-31T12:16:02.431Z,4.64
2022-12-31T12:17:05.242Z,3.92
2022-12-31T12:18:02.205Z,4.11
2022-12-31T12:19:02.275Z,4.20
2022-12-31T12:20:02.106Z,4.52
2022-12-31T12:21:02.279Z,4.04
2022-12-31T12:22:01.875Z,4.80
2022-12-31T12:23:02.715Z,5.04
2022-12-31T12:24:02.520Z,3.87
2022-12-31T12:25:02.437Z,3.17
2022-12-31T12:26:02.658Z,4.00
2022-12-31T12:27:02.435Z,5.01
2022-12-31T12:28:01.744Z,5.05
2022-12-31T12:29:02.144Z,4.80
2022-12-31T12:30:02.099Z,4.31
2022-12-31T12:31:02.348Z,2.40
2022-12-31T12:32:02.101Z,4.23
2022-12-31T12:33:02.423Z,2.04
2022-12-31T12:34:02.874Z,5.08
2022-12-31T12:35:03.119Z,4.27
2022-12-31T12:36:02.682Z,4.40
2022-12-31T12:37:02.564Z,5.41
2022-12-31T12:38:01.740Z,3.46
2022-12-31T12:39:01.765Z,2.56
2022-12-31T12:40:01.874Z,3.08
2022-12-31T12:41:01.776Z,2.93
2022-12-31T12:42:01.923Z,4.72
2022-12-31T12:43:02.063Z,4.04
2022-12-31T12:44:02.511Z,2.08
2022-12-31T12:45:02.273Z,6.51
2022-12-31T12:46:02.336Z,5.36
2022-12-31T12:47:02.684Z,4.07
2022-12-31T12:48:02.938Z,3.88
2022-12-31T12:49:02.985Z,5.76
2022-12-31T12:50:02.963Z,3.74
2022-12-31T12:51:03.524Z,4.28
2022-12-31T12:52:02.857Z,3.62
2022-12-31T12:53:02.564Z,4.07
2022-12-31T12:54:02.412Z,3.87
2022-12-31T12:55:02.502Z,2.92
2022-12-31T12:56:02.559Z,3.00
2022-12-31T12:57:01.980Z,2.93
2022-12-31T12:58:02.146Z,4.48
2022-12-31T12:59:02.322Z,4.04
2022-12-31T13:00:02.257Z,6.84
2022-12-31T13:01:02.647Z,3.40
2022-12-31T13:02:02.717Z,2.65
2022-12-31T13:03:02.895Z,3.24
2022-12-31T13:05:03.182Z,4.84
2022-12-31T13:06:02.721Z,5.49
2022-12-31T13:07:02.856Z,3.92
2022-12-31T13:08:03.246Z,5.60
2022-12-31T13:09:03.510Z,5.12
2022-12-31T13:10:03.396Z,4.72
2022-12-31T13:11:03.223Z,4.84
2022-12-31T13:12:07.580Z,3.00
2022-12-31T13:13:23.361Z,3.95
2022-12-31T13:14:02.393Z,3.54
2022-12-31T13:15:02.843Z,3.08
2022-12-31T13:16:02.951Z,2.92
2022-12-31T13:17:02.509Z,3.74
2022-12-31T13:18:02.706Z,4.12
2022-12-31T13:19:03.012Z,4.12
2022-12-31T13:20:02.792Z,3.78